Time;durP1;ratioP1;P1;durP2;ratioP2;P2;SDS_P1;SDS_P2;PMS_P1;PMS_P2;Temp;Humidity;BMP_temperature;BMP_pressure;BME280_temperature;BME280_humidity;BME280_pressure;Samples;Min_cycle;Max_cycle;Signal;HPM_P1;HPM_P2
2020/12/28 00:02:25;;;;;;;13.13;10.47;;;5.40;99.90;;;;;;4991047;28;20240;-75
2020/12/28 00:04:52;;;;;;;15.17;8.43;;;5.40;99.90;;;;;;4990942;28;20247;-72
2020/12/28 00:07:18;;;;;;;7.60;5.00;;;5.30;99.90;;;;;;4990780;28;20244;-73
2020/12/28 00:09:45;;;;;;;9.13;5.50;;;5.30;99.90;;;;;;4991201;28;20252;-69
2020/12/28 00:12:11;;;;;;;6.77;5.87;;;5.30;99.90;;;;;;4990764;28;20751;-68
2020/12/28 00:14:37;;;;;;;7.37;4.67;;;5.30;99.90;;;;;;4991156;28;20209;-69
2020/12/28 00:17:05;;;;;;;8.33;5.30;;;5.20;99.90;;;;;;4991377;28;20243;-76
2020/12/28 00:19:31;;;;;;;8.00;5.87;;;5.20;99.90;;;;;;4991067;28;20251;-75
2020/12/28 00:21:58;;;;;;;4.90;4.00;;;4.90;99.90;;;;;;4990962;28;20244;-75
2020/12/28 00:24:24;;;;;;;5.17;4.30;;;4.80;99.90;;;;;;4990686;28;20224;-73
2020/12/28 00:26:51;;;;;;;5.67;4.07;;;4.90;99.90;;;;;;4990611;28;20735;-74
2020/12/28 00:29:17;;;;;;;6.97;3.90;;;4.90;99.90;;;;;;4990790;28;20232;-73
2020/12/28 00:31:45;;;;;;;6.60;4.30;;;4.90;99.90;;;;;;4990854;28;20255;-74
2020/12/28 00:34:12;;;;;;;6.70;4.10;;;4.90;99.90;;;;;;4990933;28;20672;-71
2020/12/28 00:36:39;;;;;;;5.77;4.60;;;4.80;99.90;;;;;;4991088;28;20236;-74
2020/12/28 00:39:06;;;;;;;8.37;4.43;;;4.70;99.90;;;;;;4990873;28;20211;-74
2020/12/28 00:41:33;;;;;;;7.47;4.23;;;4.70;99.90;;;;;;4990946;28;20600;-73
2020/12/28 00:43:59;;;;;;;8.03;5.40;;;4.70;99.90;;;;;;4990906;28;20220;-75
2020/12/28 00:46:25;;;;;;;6.57;4.10;;;4.60;99.90;;;;;;4990665;28;20209;-75
2020/12/28 00:48:52;;;;;;;7.00;4.87;;;4.70;99.90;;;;;;4991032;28;20245;-75
2020/12/28 00:51:19;;;;;;;4.73;3.53;;;4.70;99.90;;;;;;4990237;28;20233;-70
2020/12/28 00:53:47;;;;;;;5.50;3.90;;;4.70;99.90;;;;;;4990655;28;20283;-72
2020/12/28 00:56:14;;;;;;;4.27;3.73;;;4.80;99.90;;;;;;4990111;28;20247;-72
2020/12/28 00:58:40;;;;;;;5.00;3.83;;;4.90;99.90;;;;;;4991165;28;20247;-72
2020/12/28 01:01:07;;;;;;;6.33;4.00;;;4.90;99.90;;;;;;4990820;28;20241;-74
2020/12/28 01:03:34;;;;;;;7.03;3.87;;;4.90;99.90;;;;;;4990410;28;20213;-74
2020/12/28 01:06:02;;;;;;;7.10;3.50;;;4.90;99.90;;;;;;4989539;28;20244;-74
2020/12/28 01:08:30;;;;;;;6.07;3.40;;;4.90;99.90;;;;;;4990081;28;20213;-73
2020/12/28 01:10:56;;;;;;;4.83;4.00;;;5.00;99.90;;;;;;4990916;28;20241;-74
2020/12/28 01:13:23;;;;;;;5.90;4.03;;;5.00;99.90;;;;;;4990234;28;20323;-74
2020/12/28 01:15:49;;;;;;;8.27;3.30;;;5.00;99.90;;;;;;4990552;28;20228;-71
2020/12/28 01:18:16;;;;;;;4.47;3.53;;;5.00;99.90;;;;;;4989952;28;20240;-73
2020/12/28 01:20:42;;;;;;;7.47;3.50;;;5.00;99.90;;;;;;4989918;28;20205;-72
2020/12/28 01:23:08;;;;;;;4.93;4.43;;;5.00;99.90;;;;;;4990333;28;20696;-75
2020/12/28 01:25:36;;;;;;;5.47;3.67;;;5.00;99.90;;;;;;4993100;28;20699;-73
2020/12/28 01:28:02;;;;;;;4.23;3.80;;;5.10;99.90;;;;;;4994158;28;20208;-74
2020/12/28 01:30:28;;;;;;;9.63;4.90;;;5.10;99.90;;;;;;4993594;28;20240;-75
2020/12/28 01:32:55;;;;;;;8.73;5.13;;;5.10;99.90;;;;;;4993476;28;20279;-72
2020/12/28 01:35:21;;;;;;;5.07;4.13;;;5.10;99.90;;;;;;4993542;28;20204;-73
2020/12/28 01:37:48;;;;;;;6.63;5.50;;;5.10;99.90;;;;;;4993931;28;20263;-73
2020/12/28 01:40:15;;;;;;;4.83;3.83;;;5.10;99.90;;;;;;4993202;28;20707;-73
2020/12/28 01:42:42;;;;;;;9.13;4.73;;;5.10;99.90;;;;;;4993739;28;20201;-72
2020/12/28 01:45:09;;;;;;;8.13;4.03;;;5.10;99.90;;;;;;4993964;28;20696;-74
2020/12/28 01:47:35;;;;;;;4.17;3.67;;;5.10;99.90;;;;;;4993055;28;20251;-74
2020/12/28 01:50:03;;;;;;;5.63;4.77;;;5.10;99.90;;;;;;4993720;28;20240;-73
2020/12/28 01:52:29;;;;;;;6.00;4.97;;;5.10;99.90;;;;;;4993056;28;20268;-74
2020/12/28 01:54:56;;;;;;;9.77;4.33;;;5.20;99.90;;;;;;4993567;28;20240;-75
2020/12/28 01:57:23;;;;;;;5.93;4.13;;;5.20;99.90;;;;;;4993459;28;20241;-76
2020/12/28 01:59:50;;;;;;;5.90;3.90;;;5.10;99.90;;;;;;4993407;28;20300;-75
2020/12/28 02:02:19;;;;;;;5.07;3.37;;;5.10;99.90;;;;;;4992962;28;20312;-76
2020/12/28 02:04:45;;;;;;;4.13;3.13;;;5.10;99.90;;;;;;4993243;28;20236;-75
2020/12/28 02:07:14;;;;;;;4.83;3.40;;;5.10;99.90;;;;;;4993597;28;20252;-72
2020/12/28 02:09:45;;;;;;;3.83;2.50;;;5.10;99.90;;;;;;4993542;28;20270;-72
2020/12/28 02:12:11;;;;;;;3.90;2.80;;;5.20;99.90;;;;;;4993307;28;20246;-73
2020/12/28 02:14:38;;;;;;;3.77;2.93;;;5.20;99.90;;;;;;4993121;28;20699;-75
2020/12/28 02:17:05;;;;;;;2.83;1.97;;;5.30;99.90;;;;;;4992683;28;20422;-75
2020/12/28 02:19:32;;;;;;;3.10;2.47;;;5.30;99.90;;;;;;4992843;28;20244;-74
2020/12/28 02:21:59;;;;;;;2.83;2.00;;;5.40;99.90;;;;;;4992884;28;20208;-73
2020/12/28 02:24:25;;;;;;;3.47;2.07;;;5.50;99.90;;;;;;4992594;28;20263;-73
2020/12/28 02:26:52;;;;;;;2.77;1.70;;;5.60;99.90;;;;;;4992593;28;20665;-76
2020/12/28 02:29:18;;;;;;;2.13;1.90;;;5.60;99.90;;;;;;4992563;28;20236;-77
2020/12/28 02:31:45;;;;;;;2.53;2.33;;;5.60;99.90;;;;;;4992603;28;20248;-75
2020/12/28 02:34:11;;;;;;;2.07;1.63;;;5.50;99.90;;;;;;4992975;28;20209;-69
2020/12/28 02:36:38;;;;;;;4.33;2.40;;;5.60;99.90;;;;;;4993127;28;20209;-78
2020/12/28 02:39:05;;;;;;;3.73;2.03;;;5.60;99.90;;;;;;4992935;28;20244;-78
2020/12/28 02:41:31;;;;;;;2.50;1.57;;;5.70;99.90;;;;;;4992220;28;20711;-76
2020/12/28 02:43:58;;;;;;;2.23;1.57;;;5.70;99.90;;;;;;4992485;28;20244;-75
2020/12/28 02:46:24;;;;;;;3.73;2.20;;;5.70;99.90;;;;;;4991944;28;20262;-74
2020/12/28 02:48:51;;;;;;;2.70;1.90;;;5.70;99.90;;;;;;4992646;28;20661;-77
2020/12/28 02:51:17;;;;;;;1.67;1.30;;;5.70;99.90;;;;;;4991985;28;20232;-77
2020/12/28 02:53:43;;;;;;;3.07;1.57;;;5.80;99.90;;;;;;4992634;28;20272;-71
2020/12/28 02:56:11;;;;;;;2.57;2.23;;;5.80;99.90;;;;;;4991040;28;20240;-74
2020/12/28 02:58:37;;;;;;;4.10;1.97;;;5.80;99.90;;;;;;4991879;28;20212;-75
2020/12/28 03:01:04;;;;;;;2.03;1.60;;;5.80;99.90;;;;;;4991928;28;20263;-76
2020/12/28 03:03:30;;;;;;;3.63;2.20;;;5.70;99.90;;;;;;4991893;28;20692;-76
2020/12/28 03:05:57;;;;;;;2.27;2.03;;;5.70;99.90;;;;;;4992342;28;20205;-74
2020/12/28 03:08:23;;;;;;;3.93;2.47;;;5.60;99.90;;;;;;4991913;28;20267;-75
2020/12/28 03:10:50;;;;;;;3.17;2.23;;;5.60;99.90;;;;;;4992431;28;20241;-75
2020/12/28 03:13:17;;;;;;;2.63;2.27;;;5.60;99.90;;;;;;4991305;28;20682;-72
2020/12/28 03:15:44;;;;;;;3.60;1.67;;;5.60;99.90;;;;;;4991618;28;20708;-75
2020/12/28 03:18:10;;;;;;;2.10;1.90;;;5.60;99.90;;;;;;4992074;28;20240;-73
2020/12/28 03:20:37;;;;;;;2.70;1.90;;;5.80;99.90;;;;;;4991912;28;20567;-69
2020/12/28 03:23:03;;;;;;;4.40;1.90;;;5.70;99.90;;;;;;4992069;28;20220;-75
2020/12/28 03:25:30;;;;;;;3.40;1.97;;;5.70;99.90;;;;;;4991165;28;20244;-69
2020/12/28 03:27:56;;;;;;;2.50;1.83;;;5.70;99.90;;;;;;4991686;28;20215;-74
2020/12/28 03:30:24;;;;;;;2.23;1.60;;;5.70;99.90;;;;;;4990799;28;20263;-68
2020/12/28 03:32:50;;;;;;;1.37;1.20;;;5.70;99.90;;;;;;4991699;28;20235;-74
2020/12/28 03:35:17;;;;;;;0.93;0.50;;;5.70;99.90;;;;;;4991177;28;20248;-69
2020/12/28 03:37:43;;;;;;;0.97;0.30;;;5.90;99.90;;;;;;4991992;28;20236;-67
2020/12/28 03:40:09;;;;;;;1.00;0.27;;;5.90;99.90;;;;;;4991892;28;20245;-66
2020/12/28 03:42:36;;;;;;;0.73;0.33;;;6.00;99.90;;;;;;4991329;28;20279;-66
2020/12/28 03:45:02;;;;;;;1.63;0.30;;;6.00;99.90;;;;;;4991732;28;20208;-81
2020/12/28 03:47:30;;;;;;;2.63;0.37;;;5.90;99.90;;;;;;4990746;28;20232;-79
2020/12/28 03:49:56;;;;;;;1.10;0.20;;;5.80;99.90;;;;;;4991836;28;20247;-67
2020/12/28 03:52:23;;;;;;;0.57;0.20;;;5.70;99.90;;;;;;4991029;28;20271;-73
2020/12/28 03:54:49;;;;;;;2.73;0.30;;;5.70;99.90;;;;;;4991613;28;20256;-75
2020/12/28 03:57:15;;;;;;;0.63;0.20;;;5.60;99.90;;;;;;4991142;28;20254;-70
2020/12/28 03:59:42;;;;;;;0.13;0.10;;;5.50;99.90;;;;;;4991088;28;20692;-75
2020/12/28 04:02:08;;;;;;;0.40;0.40;;;5.30;99.90;;;;;;4991903;28;20219;-74
2020/12/28 04:04:36;;;;;;;0.53;0.20;;;5.20;99.90;;;;;;4990785;28;20254;-76
2020/12/28 04:07:02;;;;;;;0.97;0.23;;;5.10;99.90;;;;;;4991355;28;20240;-75
2020/12/28 04:09:28;;;;;;;1.77;0.30;;;5.00;99.90;;;;;;4990708;28;20213;-75
2020/12/28 04:11:55;;;;;;;0.40;0.20;;;4.90;99.90;;;;;;4991164;28;21019;-75
2020/12/28 04:14:22;;;;;;;0.40;0.30;;;4.90;99.90;;;;;;4990942;28;20241;-77
2020/12/28 04:16:49;;;;;;;0.63;0.57;;;4.80;99.90;;;;;;4991031;28;20213;-78
2020/12/28 04:19:15;;;;;;;0.83;0.23;;;4.70;99.90;;;;;;4991141;28;20209;-77
2020/12/28 04:21:42;;;;;;;0.27;0.20;;;4.60;99.90;;;;;;4990873;28;20624;-76
2020/12/28 04:24:15;;;;;;;0.30;0.10;;;4.60;99.90;;;;;;4991246;28;20252;-71
2020/12/28 04:26:42;;;;;;;0.50;0.50;;;4.60;99.90;;;;;;4990783;28;20205;-70
2020/12/28 04:29:09;;;;;;;0.73;0.47;;;4.60;99.90;;;;;;4991738;28;20209;-73
2020/12/28 04:31:35;;;;;;;0.20;0.20;;;4.80;99.90;;;;;;4990924;28;20208;-76
2020/12/28 04:34:01;;;;;;;0.73;0.20;;;4.80;99.90;;;;;;4991121;28;20240;-75
2020/12/28 04:36:28;;;;;;;0.27;0.27;;;4.90;99.90;;;;;;4990725;28;20204;-77
2020/12/28 04:38:55;;;;;;;1.23;0.30;;;4.90;99.90;;;;;;4991146;28;20266;-78
2020/12/28 04:41:22;;;;;;;1.70;0.40;;;4.90;99.90;;;;;;4990472;28;20304;-77
2020/12/28 04:43:48;;;;;;;0.33;0.20;;;4.80;99.90;;;;;;4990857;28;20248;-79
2020/12/28 04:46:15;;;;;;;0.30;0.20;;;4.70;99.90;;;;;;4990660;28;20796;-76
2020/12/28 04:48:42;;;;;;;0.20;0.20;;;4.80;99.90;;;;;;4990899;28;20260;-70
2020/12/28 04:51:08;;;;;;;0.43;0.27;;;4.80;99.90;;;;;;4991094;28;20240;-76
2020/12/28 04:53:35;;;;;;;0.20;0.13;;;4.70;99.90;;;;;;4990386;28;20268;-77
2020/12/28 04:56:03;;;;;;;1.00;0.37;;;4.80;99.90;;;;;;4991029;28;20372;-72
2020/12/28 04:58:29;;;;;;;0.20;0.20;;;4.90;99.90;;;;;;4990492;28;20692;-72
2020/12/28 05:00:59;;;;;;;0.30;0.13;;;4.90;99.90;;;;;;4994523;28;20252;-76
2020/12/28 05:03:26;;;;;;;7.53;0.77;;;4.80;99.90;;;;;;4994125;28;20705;-76
2020/12/28 05:05:53;;;;;;;1.07;0.30;;;4.90;99.90;;;;;;4994361;28;20257;-76
2020/12/28 05:08:20;;;;;;;0.70;0.30;;;4.90;99.90;;;;;;4994155;28;20216;-76
2020/12/28 05:10:46;;;;;;;0.30;0.20;;;5.00;99.90;;;;;;4994310;28;20247;-71
2020/12/28 05:13:17;;;;;;;0.83;0.43;;;5.00;99.90;;;;;;4993996;28;20276;-70
2020/12/28 05:15:51;;;;;;;0.50;0.30;;;5.10;99.90;;;;;;4994425;28;20255;-74
2020/12/28 05:18:18;;;;;;;0.80;0.50;;;5.00;99.90;;;;;;4993628;28;20684;-75
2020/12/28 05:20:46;;;;;;;1.13;0.40;;;5.00;99.90;;;;;;4994573;28;20216;-74
2020/12/28 05:23:13;;;;;;;0.20;0.20;;;5.00;99.90;;;;;;4993812;28;20306;-74
2020/12/28 05:25:43;;;;;;;1.73;0.40;;;5.00;99.90;;;;;;4994210;28;20251;-74
2020/12/28 05:28:10;;;;;;;0.47;0.30;;;5.00;99.90;;;;;;4994120;28;20673;-75
2020/12/28 05:30:37;;;;;;;2.87;0.40;;;5.00;99.90;;;;;;4994159;28;20267;-73
2020/12/28 05:33:04;;;;;;;2.53;0.40;;;5.10;99.90;;;;;;4994267;28;20264;-74
2020/12/28 05:35:32;;;;;;;0.27;0.27;;;5.10;99.90;;;;;;4993002;28;20240;-74
2020/12/28 05:38:00;;;;;;;1.30;0.30;;;5.20;99.90;;;;;;4993462;28;20248;-71
2020/12/28 05:40:27;;;;;;;1.97;0.73;;;5.20;99.90;;;;;;4992966;28;20213;-75
2020/12/28 05:42:55;;;;;;;0.53;0.30;;;5.20;99.90;;;;;;4993592;28;20240;-74
2020/12/28 05:45:22;;;;;;;2.90;0.30;;;5.20;99.90;;;;;;4992576;28;20685;-71
2020/12/28 05:47:52;;;;;;;0.73;0.30;;;4.80;99.90;;;;;;4993429;28;20967;-75
2020/12/28 05:50:21;;;;;;;0.40;0.40;;;4.60;99.90;;;;;;4992436;28;20290;-76
2020/12/28 05:52:53;;;;;;;1.13;0.50;;;4.60;99.90;;;;;;4993548;28;20260;-77
2020/12/28 05:55:22;;;;;;;0.80;0.40;;;4.50;99.90;;;;;;4992682;28;20211;-78
2020/12/28 05:57:49;;;;;;;1.87;0.50;;;4.50;99.90;;;;;;4993604;28;20215;-76
2020/12/28 06:00:15;;;;;;;1.23;0.50;;;4.40;99.90;;;;;;4992764;28;20244;-70
2020/12/28 06:02:42;;;;;;;1.10;0.40;;;4.40;99.90;;;;;;4993420;28;20201;-70
2020/12/28 06:05:10;;;;;;;0.60;0.40;;;4.40;99.90;;;;;;4993380;28;20247;-77
2020/12/28 06:07:37;;;;;;;1.07;0.50;;;4.50;99.90;;;;;;4993075;28;20245;-72
2020/12/28 06:10:04;;;;;;;2.30;0.63;;;4.50;99.90;;;;;;4992315;28;20215;-77
2020/12/28 06:12:31;;;;;;;0.83;0.47;;;4.60;99.90;;;;;;4992478;28;20232;-77
2020/12/28 06:14:59;;;;;;;2.33;0.63;;;4.60;99.90;;;;;;4993152;28;20739;-73
2020/12/28 06:17:35;;;;;;;0.90;0.40;;;4.60;99.90;;;;;;4992675;28;20212;-77
2020/12/28 06:20:04;;;;;;;0.93;0.63;;;4.70;99.90;;;;;;4992521;28;20244;-77
2020/12/28 06:22:32;;;;;;;1.30;0.60;;;4.70;99.90;;;;;;4992261;28;20638;-72
2020/12/28 06:25:00;;;;;;;2.80;0.60;;;4.60;99.90;;;;;;4992710;28;20204;-76
2020/12/28 06:27:32;;;;;;;1.53;0.70;;;4.50;99.90;;;;;;4990499;28;20277;-76
2020/12/28 06:30:14;;;;;;;5.93;0.73;;;4.50;99.90;;;;;;4992483;28;20212;-77
2020/12/28 06:32:42;;;;;;;1.17;0.97;;;4.50;99.90;;;;;;4991198;28;20780;-71
2020/12/28 06:35:11;;;;;;;1.17;0.50;;;4.50;99.90;;;;;;4993024;28;20240;-71
2020/12/28 06:37:43;;;;;;;0.60;0.40;;;4.50;99.90;;;;;;4992379;28;20212;-71
2020/12/28 06:40:12;;;;;;;0.93;0.43;;;4.50;99.90;;;;;;4988319;28;20247;-71
2020/12/28 06:42:39;;;;;;;2.73;0.50;;;4.50;99.90;;;;;;4992827;28;20291;-76
2020/12/28 06:45:13;;;;;;;2.30;1.20;;;4.50;99.90;;;;;;4993113;28;20205;-71
2020/12/28 06:47:39;;;;;;;3.60;0.57;;;4.40;99.90;;;;;;4992889;28;20208;-76
2020/12/28 06:50:06;;;;;;;2.80;0.90;;;4.40;99.90;;;;;;4986129;28;20213;-78
2020/12/28 06:52:33;;;;;;;3.03;0.90;;;4.40;99.90;;;;;;4991519;28;20237;-77
2020/12/28 06:55:08;;;;;;;1.73;0.40;;;4.30;99.90;;;;;;4992570;28;20205;-76
2020/12/28 06:57:34;;;;;;;4.33;1.00;;;4.30;99.90;;;;;;4991676;28;20656;-73
2020/12/28 07:00:01;;;;;;;1.57;0.70;;;4.30;99.90;;;;;;4992296;28;20657;-74
2020/12/28 07:02:28;;;;;;;0.97;0.70;;;4.40;99.90;;;;;;4991536;28;20692;-75
2020/12/28 07:04:55;;;;;;;2.30;0.60;;;4.40;99.90;;;;;;4992206;28;20327;-75
2020/12/28 07:07:22;;;;;;;3.93;0.77;;;4.40;99.90;;;;;;4991537;28;20692;-78
2020/12/28 07:09:49;;;;;;;1.57;0.80;;;4.50;99.90;;;;;;4991474;28;20213;-75
2020/12/28 07:12:16;;;;;;;2.83;0.60;;;4.50;99.90;;;;;;4991959;28;20204;-73
2020/12/28 07:14:42;;;;;;;2.73;1.03;;;4.60;99.90;;;;;;4991394;28;20256;-76
2020/12/28 07:17:09;;;;;;;3.23;0.53;;;4.60;99.90;;;;;;4992278;28;20248;-76
2020/12/28 07:19:35;;;;;;;1.07;0.80;;;4.70;99.90;;;;;;4991466;28;20209;-73
2020/12/28 07:22:02;;;;;;;0.83;0.40;;;4.70;99.90;;;;;;4990859;28;20661;-78
2020/12/28 07:24:28;;;;;;;1.97;0.40;;;4.70;99.90;;;;;;4991171;28;20220;-70
2020/12/28 07:26:55;;;;;;;3.60;0.60;;;4.70;99.90;;;;;;4991596;28;20291;-81
2020/12/28 07:29:23;;;;;;;1.30;0.50;;;4.70;99.90;;;;;;4991552;28;20303;-69
2020/12/28 07:31:49;;;;;;;0.90;0.40;;;4.70;99.90;;;;;;4991326;28;20221;-77
2020/12/28 07:34:17;;;;;;;3.17;0.57;;;4.70;99.90;;;;;;4991323;28;20264;-80
2020/12/28 07:36:45;;;;;;;1.70;0.33;;;4.70;99.90;;;;;;4991656;28;20205;-78
2020/12/28 07:39:13;;;;;;;0.60;0.30;;;4.70;99.90;;;;;;4991981;28;20270;-85
2020/12/28 07:41:39;;;;;;;0.63;0.40;;;4.80;99.90;;;;;;4992333;28;20256;-82
2020/12/28 07:44:06;;;;;;;1.80;0.40;;;4.80;99.90;;;;;;4978535;28;20286;-80
2020/12/28 07:46:47;;;;;;;0.50;0.30;;;4.70;99.90;;;;;;4992088;28;20217;-73
2020/12/28 07:49:19;;;;;;;1.37;0.50;;;4.60;99.90;;;;;;4991077;28;20307;-78
2020/12/28 07:51:50;;;;;;;1.17;0.43;;;4.70;99.90;;;;;;4984407;28;20292;-72
2020/12/28 07:54:21;;;;;;;0.47;0.40;;;4.70;99.90;;;;;;4990801;28;20232;-70
2020/12/28 07:56:50;;;;;;;9.30;2.23;;;4.60;99.90;;;;;;4984080;28;20292;-70
2020/12/28 07:59:48;;;;;;;1.43;0.80;;;4.60;99.90;;;;;;4990889;28;20254;-70
2020/12/28 08:02:50;;;;;;;3.63;0.70;;;4.50;99.90;;;;;;4986721;28;20209;-82
2020/12/28 08:05:19;;;;;;;1.67;0.70;;;4.40;99.90;;;;;;4971101;28;20303;-77
2020/12/28 08:07:46;;;;;;;1.50;0.80;;;4.40;99.90;;;;;;4991220;28;20213;-86
2020/12/28 08:10:12;;;;;;;2.87;0.67;;;4.30;99.90;;;;;;4991642;28;20219;-79
2020/12/28 08:12:41;;;;;;;1.67;0.87;;;4.30;99.90;;;;;;4991366;28;20225;-80
2020/12/28 08:15:08;;;;;;;1.60;1.10;;;4.30;99.90;;;;;;4991098;28;20209;-79
2020/12/28 08:17:35;;;;;;;2.80;1.47;;;4.40;99.90;;;;;;4991304;28;20247;-81
2020/12/28 08:20:07;;;;;;;2.70;0.63;;;4.40;99.90;;;;;;4990374;28;20209;-73
2020/12/28 08:22:33;;;;;;;4.40;0.87;;;4.30;99.90;;;;;;4986379;28;20240;-72
2020/12/28 08:25:01;;;;;;;2.07;0.60;;;4.50;99.90;;;;;;4989810;28;20237;-76
2020/12/28 08:27:31;;;;;;;0.73;0.50;;;4.90;99.90;;;;;;4990583;28;20209;-85
2020/12/28 08:29:58;;;;;;;2.53;0.80;;;5.40;99.90;;;;;;4990641;28;20248;-72
2020/12/28 08:32:31;;;;;;;7.60;2.77;;;5.50;99.90;;;;;;4990937;28;20208;-71
2020/12/28 08:35:00;;;;;;;5.20;2.40;;;5.40;99.90;;;;;;4993797;28;20216;-69
2020/12/28 08:37:28;;;;;;;6.97;2.77;;;5.80;99.90;;;;;;4994831;28;20232;-70
2020/12/28 08:39:55;;;;;;;4.40;1.10;;;6.20;99.90;;;;;;4995032;28;20236;-71
2020/12/28 08:42:31;;;;;;;7.20;1.13;;;6.40;99.90;;;;;;4994230;28;20237;-72
2020/12/28 08:44:58;;;;;;;5.60;2.23;;;6.00;99.90;;;;;;4994867;28;20267;-73
2020/12/28 08:47:28;;;;;;;3.57;1.67;;;5.70;99.90;;;;;;4994216;28;20212;-76
2020/12/28 08:49:55;;;;;;;2.77;1.00;;;5.50;99.90;;;;;;4994117;28;20205;-72
2020/12/28 08:52:23;;;;;;;1.53;1.23;;;5.60;99.90;;;;;;4994104;28;20228;-71
2020/12/28 08:54:57;;;;;;;3.27;1.40;;;5.50;99.90;;;;;;4994782;28;20209;-77
2020/12/28 08:57:25;;;;;;;3.47;1.00;;;5.40;99.90;;;;;;4993852;28;20241;-78
2020/12/28 08:59:52;;;;;;;2.73;1.10;;;5.40;99.90;;;;;;4994567;28;20236;-71
2020/12/28 09:02:20;;;;;;;3.60;1.13;;;5.40;99.90;;;;;;4993272;28;20282;-74
2020/12/28 09:04:47;;;;;;;2.80;1.40;;;5.50;99.90;;;;;;4992506;28;20212;-72
2020/12/28 09:07:14;;;;;;;2.77;2.13;;;5.50;99.90;;;;;;4992882;28;20306;-72
2020/12/28 09:09:41;;;;;;;6.87;1.60;;;5.60;99.90;;;;;;4992514;28;20311;-72
2020/12/28 09:12:09;;;;;;;3.07;1.63;;;5.60;99.90;;;;;;4993960;28;20299;-69
2020/12/28 09:14:35;;;;;;;6.57;1.00;;;5.60;99.90;;;;;;4993365;28;20243;-74
2020/12/28 09:17:02;;;;;;;4.90;1.33;;;5.60;99.90;;;;;;4993432;28;20244;-71
2020/12/28 09:19:29;;;;;;;3.03;1.23;;;5.70;99.90;;;;;;4992151;28;20216;-74
2020/12/28 09:21:56;;;;;;;3.53;1.70;;;5.70;99.90;;;;;;4992967;28;20703;-72
2020/12/28 09:24:23;;;;;;;5.00;0.97;;;5.90;99.90;;;;;;4992683;28;20216;-81
2020/12/28 09:26:49;;;;;;;4.93;1.43;;;5.70;99.90;;;;;;4990128;28;20227;-77
2020/12/28 09:29:17;;;;;;;3.93;0.80;;;5.80;99.90;;;;;;4983170;28;20214;-74
2020/12/28 09:31:43;;;;;;;1.93;1.00;;;6.20;99.90;;;;;;4988723;28;20685;-80
2020/12/28 09:34:10;;;;;;;2.73;1.20;;;7.30;99.90;;;;;;4992508;28;20229;-71
2020/12/28 09:36:36;;;;;;;2.20;1.17;;;8.90;99.90;;;;;;4992832;28;20558;-84
2020/12/28 09:39:03;;;;;;;1.63;0.87;;;7.90;99.90;;;;;;4993132;28;20308;-81
2020/12/28 09:41:30;;;;;;;3.03;0.90;;;7.70;99.90;;;;;;4993242;28;20217;-81
2020/12/28 09:43:56;;;;;;;1.63;0.67;;;7.30;99.90;;;;;;4992959;28;20252;-82
2020/12/28 09:46:24;;;;;;;0.93;0.53;;;6.80;99.90;;;;;;4992184;28;20287;-81
2020/12/28 09:48:51;;;;;;;5.27;1.80;;;6.40;99.90;;;;;;4993163;28;20209;-76
2020/12/28 09:51:17;;;;;;;1.20;0.90;;;6.10;99.90;;;;;;4992297;28;20684;-75
2020/12/28 09:53:44;;;;;;;1.93;0.83;;;6.00;99.90;;;;;;4992539;28;20326;-74
2020/12/28 09:56:11;;;;;;;2.33;0.87;;;5.90;99.90;;;;;;4992847;28;20263;-75
2020/12/28 09:58:38;;;;;;;6.80;1.40;;;6.00;99.90;;;;;;4992995;28;20249;-73
2020/12/28 10:01:06;;;;;;;2.60;0.97;;;6.20;99.90;;;;;;4991892;28;20229;-75
2020/12/28 10:03:36;;;;;;;2.50;0.93;;;6.50;99.90;;;;;;4992584;28;20213;-76
2020/12/28 10:06:30;;;;;;;1.63;0.87;;;6.70;99.90;;;;;;4992268;28;20212;-83
2020/12/28 10:08:48;;;;;;;0.97;0.60;;;6.90;99.90;;;;;;4992786;28;20308;-75
2020/12/28 10:11:15;;;;;;;3.77;1.07;;;7.20;99.90;;;;;;4992144;28;20209;-79
2020/12/28 10:13:41;;;;;;;2.10;0.70;;;7.20;99.90;;;;;;4992480;28;20712;-73
2020/12/28 10:16:08;;;;;;;2.90;1.17;;;7.20;99.90;;;;;;4992005;28;20204;-78
2020/12/28 10:18:40;;;;;;;0.93;0.63;;;7.10;99.90;;;;;;4992126;28;20228;-84
2020/12/28 10:21:10;;;;;;;3.63;0.87;;;6.90;99.90;;;;;;4993066;28;20263;-82
2020/12/28 10:23:37;;;;;;;0.63;0.40;;;6.70;99.90;;;;;;4992463;28;20220;-73
2020/12/28 10:26:05;;;;;;;4.53;0.77;;;6.50;99.90;;;;;;4993555;28;20244;-74
2020/12/28 10:28:33;;;;;;;2.67;0.93;;;6.20;99.90;;;;;;4993045;28;20544;-75
2020/12/28 10:30:59;;;;;;;2.20;1.07;;;6.20;99.90;;;;;;4993138;28;20212;-80
2020/12/28 10:33:26;;;;;;;0.60;0.30;;;6.10;99.90;;;;;;4992919;28;20236;-83
2020/12/28 10:35:53;;;;;;;1.20;0.50;;;6.10;99.90;;;;;;4993691;28;20244;-84
2020/12/28 10:38:19;;;;;;;0.70;0.40;;;6.10;99.90;;;;;;4992699;28;20259;-76
2020/12/28 10:40:46;;;;;;;0.53;0.30;;;6.10;99.90;;;;;;4992050;28;20240;-91
2020/12/28 10:43:13;;;;;;;0.70;0.60;;;6.20;99.90;;;;;;4992867;28;20240;-75
2020/12/28 10:45:39;;;;;;;0.87;0.30;;;6.20;99.90;;;;;;4993203;28;20201;-84
2020/12/28 10:48:06;;;;;;;2.03;0.67;;;6.20;99.90;;;;;;4993035;28;20267;-79
2020/12/28 10:50:32;;;;;;;1.27;0.60;;;6.20;99.90;;;;;;4991915;28;20212;-75
2020/12/28 10:52:59;;;;;;;0.70;0.57;;;6.30;99.90;;;;;;4992097;28;20322;-74
2020/12/28 10:55:26;;;;;;;0.83;0.67;;;6.30;99.90;;;;;;4991794;28;20208;-78
2020/12/28 10:57:52;;;;;;;1.30;0.90;;;6.50;99.90;;;;;;4992254;28;20216;-82
2020/12/28 11:00:19;;;;;;;2.00;1.10;;;6.60;99.90;;;;;;4991358;28;20241;-82
2020/12/28 11:02:45;;;;;;;2.30;1.13;;;6.90;99.90;;;;;;4991796;28;20224;-76
2020/12/28 11:05:12;;;;;;;0.57;0.43;;;7.10;99.90;;;;;;4991475;28;20588;-75
2020/12/28 11:07:38;;;;;;;0.90;0.40;;;7.60;99.90;;;;;;4991879;28;20245;-85
2020/12/28 11:10:05;;;;;;;0.93;0.40;;;7.60;99.90;;;;;;4991170;28;20643;-83
2020/12/28 11:12:32;;;;;;;1.20;1.00;;;7.30;99.90;;;;;;4990911;28;20267;-80
2020/12/28 11:14:58;;;;;;;1.30;0.50;;;7.00;99.90;;;;;;4991322;28;20205;-79
2020/12/28 11:17:37;;;;;;;0.70;0.60;;;6.80;99.90;;;;;;5097592;27;20619;-77
2020/12/28 11:20:03;;;;;;;1.07;0.47;;;6.90;99.90;;;;;;5087705;28;20205;-80
2020/12/28 11:22:29;;;;;;;2.90;1.60;;;6.50;99.90;;;;;;5087117;28;20209;-82
2020/12/28 11:24:56;;;;;;;2.93;2.20;;;6.40;99.90;;;;;;5087673;28;20207;-79
2020/12/28 11:27:22;;;;;;;4.83;3.07;;;6.40;99.90;;;;;;5086764;28;20275;-85
2020/12/28 11:29:49;;;;;;;1.50;0.83;;;6.50;99.90;;;;;;5087381;28;20233;-86
2020/12/28 11:32:15;;;;;;;2.73;1.13;;;6.50;99.90;;;;;;5086335;28;20296;-75
2020/12/28 11:34:42;;;;;;;2.53;0.70;;;6.50;99.90;;;;;;5085753;28;20244;-75
2020/12/28 11:37:09;;;;;;;2.73;1.40;;;6.40;99.90;;;;;;5084606;28;20239;-75
2020/12/28 11:39:35;;;;;;;3.47;2.73;;;6.30;99.90;;;;;;5085058;28;20201;-81
2020/12/28 11:42:02;;;;;;;3.97;2.57;;;6.40;99.90;;;;;;5086077;28;20205;-76
2020/12/28 11:44:28;;;;;;;3.10;1.90;;;6.80;99.90;;;;;;5086630;28;20581;-76
2020/12/28 11:46:55;;;;;;;7.43;4.60;;;7.30;99.90;;;;;;5086654;28;20583;-78
2020/12/28 11:49:22;;;;;;;1.63;1.23;;;7.40;99.90;;;;;;5087177;28;20209;-75
2020/12/28 11:51:52;;;;;;;1.97;1.00;;;7.70;99.90;;;;;;5084960;28;20208;-79
2020/12/28 11:54:19;;;;;;;2.30;0.80;;;7.40;99.90;;;;;;5082331;28;20205;-80
2020/12/28 11:56:45;;;;;;;2.73;1.03;;;7.20;99.90;;;;;;5084921;28;20629;-82
2020/12/28 11:59:12;;;;;;;2.67;0.67;;;7.20;99.90;;;;;;5087031;28;20220;-80
2020/12/28 12:01:38;;;;;;;0.90;0.77;;;7.10;99.90;;;;;;5087620;28;20232;-74
2020/12/28 12:04:05;;;;;;;1.67;1.30;;;6.80;99.90;;;;;;5086816;28;20237;-76
2020/12/28 12:06:31;;;;;;;2.57;0.90;;;6.50;99.90;;;;;;5087285;28;20273;-81
2020/12/28 12:09:12;;;;;;;2.57;0.90;;;6.20;99.90;;;;;;5086150;28;20202;-80
2020/12/28 12:11:43;;;;;;;2.90;1.33;;;6.10;99.90;;;;;;5084832;28;20259;-79
2020/12/28 12:14:11;;;;;;;2.20;1.20;;;5.90;99.90;;;;;;5087032;28;20621;-82
2020/12/28 12:16:37;;;;;;;3.40;1.10;;;5.80;99.90;;;;;;5085519;28;20712;-81
2020/12/28 12:19:04;;;;;;;3.77;1.67;;;5.80;99.90;;;;;;5087398;28;20263;-81
2020/12/28 12:21:31;;;;;;;5.00;2.20;;;5.90;99.90;;;;;;5085803;28;20206;-79
2020/12/28 12:23:59;;;;;;;2.30;1.40;;;5.90;99.90;;;;;;5086980;28;20756;-80
2020/12/28 12:26:26;;;;;;;1.00;0.87;;;6.00;99.90;;;;;;5086448;28;20202;-82
2020/12/28 12:28:54;;;;;;;3.50;2.13;;;6.20;99.90;;;;;;5073794;28;20221;-83
2020/12/28 12:31:21;;;;;;;4.37;2.13;;;6.50;99.90;;;;;;5072805;28;20210;-80
2020/12/28 12:33:48;;;;;;;6.63;2.50;;;6.70;99.90;;;;;;5072774;28;20209;-79
2020/12/28 12:36:16;;;;;;;4.43;2.43;;;6.40;99.90;;;;;;5072763;28;20292;-81
2020/12/28 12:38:43;;;;;;;2.60;1.23;;;6.20;99.90;;;;;;5072703;28;20205;-80
2020/12/28 12:41:14;;;;;;;9.60;2.10;;;6.00;99.90;;;;;;5069471;28;20230;-82
2020/12/28 12:43:41;;;;;;;3.77;2.40;;;5.90;99.90;;;;;;5072166;28;20228;-79
2020/12/28 12:46:08;;;;;;;5.60;1.33;;;5.90;99.90;;;;;;5072998;28;20577;-79
2020/12/28 12:48:35;;;;;;;10.23;7.17;;;5.90;99.90;;;;;;5072112;28;20214;-76
2020/12/28 12:51:02;;;;;;;4.57;1.80;;;5.90;99.90;;;;;;5072557;28;20237;-82
2020/12/28 12:53:29;;;;;;;3.97;1.33;;;5.90;99.90;;;;;;5072352;28;20266;-87
2020/12/28 12:55:55;;;;;;;2.40;1.00;;;5.90;99.90;;;;;;5072036;28;20658;-83
2020/12/28 12:58:23;;;;;;;6.10;2.13;;;5.90;99.90;;;;;;5071433;28;20324;-81
2020/12/28 13:00:50;;;;;;;1.73;0.90;;;6.00;99.90;;;;;;5071349;28;20614;-81